sensor_id;sensor_type;location;lat;lon;timestamp;temperature;humidity
47226;DHT22;32965;64.142;-21.912;2022-09-01T00:01:17;9.50;99.90
47226;DHT22;32965;64.142;-21.912;2022-09-01T00:04:48;9.50;99.90
47226;DHT22;32965;64.142;-21.912;2022-09-01T00:08:29;9.50;99.90
47226;DHT22;32965;64.142;-21.912;2022-09-01T00:11:48;9.50;99.90
47226;DHT22;32965;64.142;-21.912;2022-09-01T00:18:23;9.30;99.90
47226;DHT22;32965;64.142;-21.912;2022-09-01T00:29:02;9.10;99.90
47226;DHT22;32965;64.142;-21.912;2022-09-01T00:31:56;9.20;99.90
47226;DHT22;32965;64.142;-21.912;2022-09-01T00:34:46;9.20;99.90
47226;DHT22;32965;64.142;-21.912;2022-09-01T00:37:43;9.20;99.90
47226;DHT22;32965;64.142;-21.912;2022-09-01T00:40:42;9.20;99.90
47226;DHT22;32965;64.142;-21.912;2022-09-01T00:47:10;9.00;99.90
47226;DHT22;32965;64.142;-21.912;2022-09-01T00:50:26;9.10;99.90
47226;DHT22;32965;64.142;-21.912;2022-09-01T00:53:00;9.10;99.90
47226;DHT22;32965;64.142;-21.912;2022-09-01T00:55:52;9.10;99.90
47226;DHT22;32965;64.142;-21.912;2022-09-01T00:58:50;9.20;99.90
47226;DHT22;32965;64.142;-21.912;2022-09-01T01:02:01;9.10;99.90
47226;DHT22;32965;64.142;-21.912;2022-09-01T01:07:35;9.10;99.90
47226;DHT22;32965;64.142;-21.912;2022-09-01T01:10:44;9.20;99.90
47226;DHT22;32965;64.142;-21.912;2022-09-01T01:13:59;9.20;99.90
47226;DHT22;32965;64.142;-21.912;2022-09-01T01:17:10;9.10;99.90
47226;DHT22;32965;64.142;-21.912;2022-09-01T01:20:24;9.20;99.90
47226;DHT22;32965;64.142;-21.912;2022-09-01T01:27:35;9.10;99.90
47226;DHT22;32965;64.142;-21.912;2022-09-01T01:30:06;9.20;99.90
47226;DHT22;32965;64.142;-21.912;2022-09-01T01:33:13;9.20;99.90
47226;DHT22;32965;64.142;-21.912;2022-09-01T01:36:03;9.20;99.90
47226;DHT22;32965;64.142;-21.912;2022-09-01T01:39:11;9.10;99.90
47226;DHT22;32965;64.142;-21.912;2022-09-01T01:45:14;9.10;99.90
47226;DHT22;32965;64.142;-21.912;2022-09-01T01:48:03;9.10;99.90
47226;DHT22;32965;64.142;-21.912;2022-09-01T01:51:13;9.10;99.90
47226;DHT22;32965;64.142;-21.912;2022-09-01T01:54:09;9.00;99.90
47226;DHT22;32965;64.142;-21.912;2022-09-01T01:57:16;9.10;99.90
47226;DHT22;32965;64.142;-21.912;2022-09-01T02:00:27;9.10;99.90
47226;DHT22;32965;64.142;-21.912;2022-09-01T02:03:35;9.10;99.90
47226;DHT22;32965;64.142;-21.912;2022-09-01T02:06:33;9.00;99.90
47226;DHT22;32965;64.142;-21.912;2022-09-01T02:09:40;9.10;99.90
47226;DHT22;32965;64.142;-21.912;2022-09-01T02:13:11;9.10;99.90
47226;DHT22;32965;64.142;-21.912;2022-09-01T02:16:07;9.00;99.90
47226;DHT22;32965;64.142;-21.912;2022-09-01T02:18:55;8.90;99.90
47226;DHT22;32965;64.142;-21.912;2022-09-01T02:30:15;8.90;99.90
47226;DHT22;32965;64.142;-21.912;2022-09-01T02:35:44;8.80;99.90
47226;DHT22;32965;64.142;-21.912;2022-09-01T02:38:52;8.80;99.90
47226;DHT22;32965;64.142;-21.912;2022-09-01T02:41:59;8.80;99.90
47226;DHT22;32965;64.142;-21.912;2022-09-01T02:45:12;8.60;99.90
47226;DHT22;32965;64.142;-21.912;2022-09-01T02:48:04;8.60;99.90
47226;DHT22;32965;64.142;-21.912;2022-09-01T02:50:54;8.60;99.90
47226;DHT22;32965;64.142;-21.912;2022-09-01T02:54:01;8.50;99.90
47226;DHT22;32965;64.142;-21.912;2022-09-01T02:57:26;8.40;99.90
47226;DHT22;32965;64.142;-21.912;2022-09-01T03:00:08;8.30;99.90
47226;DHT22;32965;64.142;-21.912;2022-09-01T03:11:30;8.30;99.90
47226;DHT22;32965;64.142;-21.912;2022-09-01T03:21:26;8.40;99.90
47226;DHT22;32965;64.142;-21.912;2022-09-01T03:23:55;8.50;99.90
47226;DHT22;32965;64.142;-21.912;2022-09-01T03:26:49;8.40;99.90
47226;DHT22;32965;64.142;-21.912;2022-09-01T03:29:59;8.60;99.90
47226;DHT22;32965;64.142;-21.912;2022-09-01T03:32:30;8.60;99.90
47226;DHT22;32965;64.142;-21.912;2022-09-01T03:35:19;8.60;99.90
47226;DHT22;32965;64.142;-21.912;2022-09-01T03:38:12;8.50;99.90
47226;DHT22;32965;64.142;-21.912;2022-09-01T03:41:25;8.60;99.90
47226;DHT22;32965;64.142;-21.912;2022-09-01T03:43:52;8.50;99.90
47226;DHT22;32965;64.142;-21.912;2022-09-01T03:46:27;8.40;99.90
47226;DHT22;32965;64.142;-21.912;2022-09-01T03:49:05;8.40;99.90
47226;DHT22;32965;64.142;-21.912;2022-09-01T03:54:23;8.30;99.90
47226;DHT22;32965;64.142;-21.912;2022-09-01T03:59:31;8.40;99.90
47226;DHT22;32965;64.142;-21.912;2022-09-01T04:02:17;8.30;99.90
47226;DHT22;32965;64.142;-21.912;2022-09-01T04:05:04;8.30;99.90
47226;DHT22;32965;64.142;-21.912;2022-09-01T04:07:31;8.20;99.90
47226;DHT22;32965;64.142;-21.912;2022-09-01T04:11:04;8.00;99.90
47226;DHT22;32965;64.142;-21.912;2022-09-01T04:13:57;8.00;99.90
47226;DHT22;32965;64.142;-21.912;2022-09-01T04:16:28;8.00;99.90
47226;DHT22;32965;64.142;-21.912;2022-09-01T04:19:39;7.80;99.90
47226;DHT22;32965;64.142;-21.912;2022-09-01T04:22:06;7.80;99.90
47226;DHT22;32965;64.142;-21.912;2022-09-01T04:24:37;7.70;99.90
47226;DHT22;32965;64.142;-21.912;2022-09-01T04:27:24;7.70;99.90
47226;DHT22;32965;64.142;-21.912;2022-09-01T04:30:21;7.70;99.90
47226;DHT22;32965;64.142;-21.912;2022-09-01T04:33:12;7.60;99.90
47226;DHT22;32965;64.142;-21.912;2022-09-01T04:38:11;7.50;99.90
47226;DHT22;32965;64.142;-21.912;2022-09-01T04:40:43;7.40;99.90
47226;DHT22;32965;64.142;-21.912;2022-09-01T04:43:24;7.40;99.90
47226;DHT22;32965;64.142;-21.912;2022-09-01T04:45:55;7.40;99.90
47226;DHT22;32965;64.142;-21.912;2022-09-01T04:49:11;7.40;99.90
47226;DHT22;32965;64.142;-21.912;2022-09-01T04:52:06;7.30;99.90
47226;DHT22;32965;64.142;-21.912;2022-09-01T04:54:32;7.30;99.90
47226;DHT22;32965;64.142;-21.912;2022-09-01T04:57:01;7.20;99.90
47226;DHT22;32965;64.142;-21.912;2022-09-01T04:59:47;7.20;99.90
47226;DHT22;32965;64.142;-21.912;2022-09-01T05:02:36;7.20;99.90
47226;DHT22;32965;64.142;-21.912;2022-09-01T05:05:11;7.20;99.90
47226;DHT22;32965;64.142;-21.912;2022-09-01T05:07:46;7.10;99.90
47226;DHT22;32965;64.142;-21.912;2022-09-01T05:10:51;7.00;99.90
47226;DHT22;32965;64.142;-21.912;2022-09-01T05:13:44;7.00;99.90
47226;DHT22;32965;64.142;-21.912;2022-09-01T05:16:34;7.00;99.90
47226;DHT22;32965;64.142;-21.912;2022-09-01T05:19:45;7.00;99.90
47226;DHT22;32965;64.142;-21.912;2022-09-01T05:22:32;7.00;99.90
47226;DHT22;32965;64.142;-21.912;2022-09-01T05:25:40;7.20;99.90
47226;DHT22;32965;64.142;-21.912;2022-09-01T05:28:26;7.10;99.90
47226;DHT22;32965;64.142;-21.912;2022-09-01T05:31:29;7.00;99.90
47226;DHT22;32965;64.142;-21.912;2022-09-01T05:34:14;7.10;99.90
47226;DHT22;32965;64.142;-21.912;2022-09-01T05:37:11;7.00;99.90
47226;DHT22;32965;64.142;-21.912;2022-09-01T05:40:24;7.00;99.90
47226;DHT22;32965;64.142;-21.912;2022-09-01T05:46:11;7.10;99.90
47226;DHT22;32965;64.142;-21.912;2022-09-01T05:49:00;7.10;99.90
47226;DHT22;32965;64.142;-21.912;2022-09-01T05:52:07;7.10;99.90
47226;DHT22;32965;64.142;-21.912;2022-09-01T05:55:28;7.20;99.90
47226;DHT22;32965;64.142;-21.912;2022-09-01T06:01:25;7.20;99.90
47226;DHT22;32965;64.142;-21.912;2022-09-01T06:04:34;7.30;99.90
47226;DHT22;32965;64.142;-21.912;2022-09-01T06:31:19;7.50;99.90
47226;DHT22;32965;64.142;-21.912;2022-09-01T07:21:28;10.30;99.90
47226;DHT22;32965;64.142;-21.912;2022-09-01T07:24:37;10.30;99.90
47226;DHT22;32965;64.142;-21.912;2022-09-01T07:27:24;10.10;99.70
47226;DHT22;32965;64.142;-21.912;2022-09-01T07:30:22;10.10;99.90
47226;DHT22;32965;64.142;-21.912;2022-09-01T07:33:48;9.20;99.70
47226;DHT22;32965;64.142;-21.912;2022-09-01T07:36:52;9.20;99.70
47226;DHT22;32965;64.142;-21.912;2022-09-01T07:40:23;9.00;99.90
47226;DHT22;32965;64.142;-21.912;2022-09-01T07:43:42;8.70;99.90
47226;DHT22;32965;64.142;-21.912;2022-09-01T07:46:54;8.70;99.90
47226;DHT22;32965;64.142;-21.912;2022-09-01T07:50:11;8.60;99.90
47226;DHT22;32965;64.142;-21.912;2022-09-01T07:58:55;9.20;99.90
47226;DHT22;32965;64.142;-21.912;2022-09-01T08:02:00;9.50;99.90
47226;DHT22;32965;64.142;-21.912;2022-09-01T08:05:38;9.60;99.90
47226;DHT22;32965;64.142;-21.912;2022-09-01T08:09:35;10.10;99.90
47226;DHT22;32965;64.142;-21.912;2022-09-01T08:12:46;10.20;99.90
47226;DHT22;32965;64.142;-21.912;2022-09-01T08:15:51;10.20;99.70
47226;DHT22;32965;64.142;-21.912;2022-09-01T08:19:02;10.20;99.60
47226;DHT22;32965;64.142;-21.912;2022-09-01T08:22:39;10.20;99.50
47226;DHT22;32965;64.142;-21.912;2022-09-01T08:25:50;10.00;99.10
47226;DHT22;32965;64.142;-21.912;2022-09-01T08:36:47;9.90;99.40
47226;DHT22;32965;64.142;-21.912;2022-09-01T08:46:36;10.00;99.30
47226;DHT22;32965;64.142;-21.912;2022-09-01T08:50:25;10.10;99.20
47226;DHT22;32965;64.142;-21.912;2022-09-01T08:57:43;10.20;99.00
47226;DHT22;32965;64.142;-21.912;2022-09-01T09:11:00;10.60;98.80
47226;DHT22;32965;64.142;-21.912;2022-09-01T09:18:19;10.80;99.00
47226;DHT22;32965;64.142;-21.912;2022-09-01T09:21:47;11.60;98.40
47226;DHT22;32965;64.142;-21.912;2022-09-01T09:28:16;11.80;97.80
47226;DHT22;32965;64.142;-21.912;2022-09-01T09:31:32;11.70;97.00
47226;DHT22;32965;64.142;-21.912;2022-09-01T09:47:36;11.80;95.90
47226;DHT22;32965;64.142;-21.912;2022-09-01T09:50:27;11.90;95.60
47226;DHT22;32965;64.142;-21.912;2022-09-01T09:59:21;11.90;95.50
47226;DHT22;32965;64.142;-21.912;2022-09-01T10:02:52;11.70;94.90
47226;DHT22;32965;64.142;-21.912;2022-09-01T10:06:04;11.70;94.80
47226;DHT22;32965;64.142;-21.912;2022-09-01T10:12:59;11.40;94.90
47226;DHT22;32965;64.142;-21.912;2022-09-01T10:19:48;11.30;95.00
47226;DHT22;32965;64.142;-21.912;2022-09-01T10:30:51;12.20;94.70
47226;DHT22;32965;64.142;-21.912;2022-09-01T10:34:34;12.30;94.20
47226;DHT22;32965;64.142;-21.912;2022-09-01T10:43:49;12.30;93.10
47226;DHT22;32965;64.142;-21.912;2022-09-01T10:52:56;12.20;92.20
47226;DHT22;32965;64.142;-21.912;2022-09-01T11:38:31;12.40;89.30
47226;DHT22;32965;64.142;-21.912;2022-09-01T11:56:58;12.80;87.80
47226;DHT22;32965;64.142;-21.912;2022-09-01T12:05:42;13.10;85.40
47226;DHT22;32965;64.142;-21.912;2022-09-01T12:09:03;13.00;86.00
47226;DHT22;32965;64.142;-21.912;2022-09-01T12:16:20;13.10;86.00
47226;DHT22;32965;64.142;-21.912;2022-09-01T12:29:26;13.20;83.80
47226;DHT22;32965;64.142;-21.912;2022-09-01T12:33:09;13.00;83.90
47226;DHT22;32965;64.142;-21.912;2022-09-01T12:55:21;12.90;85.40
47226;DHT22;32965;64.142;-21.912;2022-09-01T13:07:03;13.50;81.70
47226;DHT22;32965;64.142;-21.912;2022-09-01T14:06:49;14.80;69.70
47226;DHT22;32965;64.142;-21.912;2022-09-01T16:19:21;13.10;80.40
47226;DHT22;32965;64.142;-21.912;2022-09-01T16:23:15;12.70;83.00
47226;DHT22;32965;64.142;-21.912;2022-09-01T16:32:06;12.10;90.90
47226;DHT22;32965;64.142;-21.912;2022-09-01T16:34:32;12.20;91.50
47226;DHT22;32965;64.142;-21.912;2022-09-01T16:37:08;12.20;92.70
47226;DHT22;32965;64.142;-21.912;2022-09-01T16:39:45;12.40;93.10
47226;DHT22;32965;64.142;-21.912;2022-09-01T16:45:12;12.80;92.30
47226;DHT22;32965;64.142;-21.912;2022-09-01T16:47:53;12.60;91.80
47226;DHT22;32965;64.142;-21.912;2022-09-01T16:53:30;12.10;92.50
47226;DHT22;32965;64.142;-21.912;2022-09-01T16:56:06;11.80;93.10
47226;DHT22;32965;64.142;-21.912;2022-09-01T17:04:52;9.70;97.20
47226;DHT22;32965;64.142;-21.912;2022-09-01T17:12:37;9.10;99.90
47226;DHT22;32965;64.142;-21.912;2022-09-01T17:15:11;9.00;99.90
47226;DHT22;32965;64.142;-21.912;2022-09-01T17:20:34;8.90;99.90
47226;DHT22;32965;64.142;-21.912;2022-09-01T17:23:01;8.80;99.90
47226;DHT22;32965;64.142;-21.912;2022-09-01T17:25:42;8.80;99.90
47226;DHT22;32965;64.142;-21.912;2022-09-01T17:28:17;8.70;99.90
47226;DHT22;32965;64.142;-21.912;2022-09-01T17:30:55;8.60;99.90
47226;DHT22;32965;64.142;-21.912;2022-09-01T17:38:48;8.90;99.90
47226;DHT22;32965;64.142;-21.912;2022-09-01T17:41:35;9.00;99.90
47226;DHT22;32965;64.142;-21.912;2022-09-01T17:44:23;9.10;99.90
47226;DHT22;32965;64.142;-21.912;2022-09-01T17:57:51;10.00;99.90
47226;DHT22;32965;64.142;-21.912;2022-09-01T18:00:23;10.10;99.90
47226;DHT22;32965;64.142;-21.912;2022-09-01T18:02:54;10.30;99.90
47226;DHT22;32965;64.142;-21.912;2022-09-01T18:05:24;10.50;99.90
47226;DHT22;32965;64.142;-21.912;2022-09-01T18:11:01;10.50;99.90
47226;DHT22;32965;64.142;-21.912;2022-09-01T18:16:17;10.20;99.90
47226;DHT22;32965;64.142;-21.912;2022-09-01T18:18:48;10.10;99.90
47226;DHT22;32965;64.142;-21.912;2022-09-01T18:21:16;10.00;99.90
47226;DHT22;32965;64.142;-21.912;2022-09-01T18:23:44;9.90;99.90
47226;DHT22;32965;64.142;-21.912;2022-09-01T18:26:29;9.80;99.90
47226;DHT22;32965;64.142;-21.912;2022-09-01T18:28:58;9.70;99.90
47226;DHT22;32965;64.142;-21.912;2022-09-01T18:31:50;9.60;99.90
47226;DHT22;32965;64.142;-21.912;2022-09-01T18:34:43;9.60;99.90
47226;DHT22;32965;64.142;-21.912;2022-09-01T18:40:32;9.50;99.90
47226;DHT22;32965;64.142;-21.912;2022-09-01T18:43:35;9.30;99.90
47226;DHT22;32965;64.142;-21.912;2022-09-01T18:46:28;9.30;99.90
47226;DHT22;32965;64.142;-21.912;2022-09-01T18:54:22;9.30;99.90
47226;DHT22;32965;64.142;-21.912;2022-09-01T18:56:54;9.30;99.90
47226;DHT22;32965;64.142;-21.912;2022-09-01T19:20:44;9.80;99.90
47226;DHT22;32965;64.142;-21.912;2022-09-01T19:23:39;9.80;99.90
47226;DHT22;32965;64.142;-21.912;2022-09-01T19:26:13;9.90;99.90
47226;DHT22;32965;64.142;-21.912;2022-09-01T19:29:06;9.80;99.90
47226;DHT22;32965;64.142;-21.912;2022-09-01T19:31:47;9.80;99.90
47226;DHT22;32965;64.142;-21.912;2022-09-01T19:34:23;9.70;99.90
47226;DHT22;32965;64.142;-21.912;2022-09-01T19:36:54;9.70;99.90
47226;DHT22;32965;64.142;-21.912;2022-09-01T19:39:37;9.70;99.90
47226;DHT22;32965;64.142;-21.912;2022-09-01T19:42:25;9.70;99.90
47226;DHT22;32965;64.142;-21.912;2022-09-01T19:47:37;9.70;99.90
47226;DHT22;32965;64.142;-21.912;2022-09-01T19:50:25;9.80;99.90
47226;DHT22;32965;64.142;-21.912;2022-09-01T19:53:04;9.90;99.90
47226;DHT22;32965;64.142;-21.912;2022-09-01T19:58:20;10.10;99.90
47226;DHT22;32965;64.142;-21.912;2022-09-01T20:00:58;10.10;99.90
47226;DHT22;32965;64.142;-21.912;2022-09-01T20:03:35;10.20;99.90
47226;DHT22;32965;64.142;-21.912;2022-09-01T20:09:12;10.30;99.90
47226;DHT22;32965;64.142;-21.912;2022-09-01T20:17:32;10.10;99.90
47226;DHT22;32965;64.142;-21.912;2022-09-01T20:25:07;10.00;99.90
47226;DHT22;32965;64.142;-21.912;2022-09-01T20:30:25;9.80;99.90
47226;DHT22;32965;64.142;-21.912;2022-09-01T20:33:02;9.60;99.90
47226;DHT22;32965;64.142;-21.912;2022-09-01T20:35:57;9.50;99.90
47226;DHT22;32965;64.142;-21.912;2022-09-01T20:38:33;9.40;99.90
47226;DHT22;32965;64.142;-21.912;2022-09-01T20:41:26;9.30;99.90
47226;DHT22;32965;64.142;-21.912;2022-09-01T20:43:56;9.30;99.90
47226;DHT22;32965;64.142;-21.912;2022-09-01T20:46:23;9.30;99.90
47226;DHT22;32965;64.142;-21.912;2022-09-01T20:48:51;9.30;99.90
47226;DHT22;32965;64.142;-21.912;2022-09-01T21:00:18;9.20;99.90
47226;DHT22;32965;64.142;-21.912;2022-09-01T21:05:57;9.20;99.90
47226;DHT22;32965;64.142;-21.912;2022-09-01T21:08:51;9.20;99.90
47226;DHT22;32965;64.142;-21.912;2022-09-01T21:11:34;9.10;99.90
47226;DHT22;32965;64.142;-21.912;2022-09-01T21:17:25;9.10;99.90
47226;DHT22;32965;64.142;-21.912;2022-09-01T21:23:08;9.10;99.90
47226;DHT22;32965;64.142;-21.912;2022-09-01T21:25:35;9.10;99.90
47226;DHT22;32965;64.142;-21.912;2022-09-01T21:28:04;9.10;99.90
47226;DHT22;32965;64.142;-21.912;2022-09-01T21:30:35;9.20;99.90
47226;DHT22;32965;64.142;-21.912;2022-09-01T21:33:01;9.20;99.90
47226;DHT22;32965;64.142;-21.912;2022-09-01T21:35:35;9.20;99.90
47226;DHT22;32965;64.142;-21.912;2022-09-01T21:38:03;9.20;99.90
47226;DHT22;32965;64.142;-21.912;2022-09-01T21:40:32;9.20;99.90
47226;DHT22;32965;64.142;-21.912;2022-09-01T21:43:11;9.20;99.90
47226;DHT22;32965;64.142;-21.912;2022-09-01T21:45:38;9.20;99.90
47226;DHT22;32965;64.142;-21.912;2022-09-01T21:48:05;9.20;99.90
47226;DHT22;32965;64.142;-21.912;2022-09-01T21:50:32;9.20;99.90
47226;DHT22;32965;64.142;-21.912;2022-09-01T21:52:58;9.20;99.90
47226;DHT22;32965;64.142;-21.912;2022-09-01T21:55:27;9.20;99.90
47226;DHT22;32965;64.142;-21.912;2022-09-01T21:57:53;9.20;99.90
47226;DHT22;32965;64.142;-21.912;2022-09-01T22:00:31;9.20;99.90
47226;DHT22;32965;64.142;-21.912;2022-09-01T22:02:57;9.20;99.90
47226;DHT22;32965;64.142;-21.912;2022-09-01T22:05:28;9.20;99.90
47226;DHT22;32965;64.142;-21.912;2022-09-01T22:07:55;9.30;99.90
47226;DHT22;32965;64.142;-21.912;2022-09-01T22:10:25;9.30;99.90
47226;DHT22;32965;64.142;-21.912;2022-09-01T22:17:48;9.30;99.90
47226;DHT22;32965;64.142;-21.912;2022-09-01T22:21:36;9.20;99.90
47226;DHT22;32965;64.142;-21.912;2022-09-01T22:24:34;9.10;99.90
47226;DHT22;32965;64.142;-21.912;2022-09-01T22:27:00;9.00;99.90
47226;DHT22;32965;64.142;-21.912;2022-09-01T22:29:26;9.10;99.90
47226;DHT22;32965;64.142;-21.912;2022-09-01T22:32:21;9.10;99.90
47226;DHT22;32965;64.142;-21.912;2022-09-01T22:35:10;9.00;99.90
47226;DHT22;32965;64.142;-21.912;2022-09-01T22:37:37;9.00;99.90
47226;DHT22;32965;64.142;-21.912;2022-09-01T22:40:18;9.00;99.90
47226;DHT22;32965;64.142;-21.912;2022-09-01T22:42:44;8.90;99.90
47226;DHT22;32965;64.142;-21.912;2022-09-01T22:45:12;8.90;99.90
47226;DHT22;32965;64.142;-21.912;2022-09-01T22:47:54;8.80;99.90
47226;DHT22;32965;64.142;-21.912;2022-09-01T22:50:20;8.80;99.90
47226;DHT22;32965;64.142;-21.912;2022-09-01T22:52:50;8.80;99.90
47226;DHT22;32965;64.142;-21.912;2022-09-01T22:55:15;8.80;99.90
47226;DHT22;32965;64.142;-21.912;2022-09-01T22:57:41;8.80;99.90
47226;DHT22;32965;64.142;-21.912;2022-09-01T23:03:50;8.80;99.90
47226;DHT22;32965;64.142;-21.912;2022-09-01T23:07:34;8.80;99.90
47226;DHT22;32965;64.142;-21.912;2022-09-01T23:10:46;8.70;99.90
47226;DHT22;32965;64.142;-21.912;2022-09-01T23:14:12;8.70;99.90
47226;DHT22;32965;64.142;-21.912;2022-09-01T23:21:06;8.70;99.90
47226;DHT22;32965;64.142;-21.912;2022-09-01T23:24:47;8.70;99.90
47226;DHT22;32965;64.142;-21.912;2022-09-01T23:28:19;8.70;99.90
47226;DHT22;32965;64.142;-21.912;2022-09-01T23:31:36;8.70;99.90
47226;DHT22;32965;64.142;-21.912;2022-09-01T23:34:46;8.80;99.90
47226;DHT22;32965;64.142;-21.912;2022-09-01T23:38:09;8.90;99.90
47226;DHT22;32965;64.142;-21.912;2022-09-01T23:41:52;9.00;99.90
47226;DHT22;32965;64.142;-21.912;2022-09-01T23:45:30;9.00;99.90
47226;DHT22;32965;64.142;-21.912;2022-09-01T23:59:06;9.10;99.90
